Time;durP1;ratioP1;P1;durP2;ratioP2;P2;SDS_P1;SDS_P2;PMS_P1;PMS_P2;Temp;Humidity;BMP_temperature;BMP_pressure;BME280_temperature;BME280_humidity;BME280_pressure;Samples;Min_cycle;Max_cycle;Signal;HPM_P1;HPM_P2
2022/05/30 00:01:51;;;;;;;;;;;;;;;;;;5097876;28;19918;-30
2022/05/30 00:04:17;;;;;;;;;;;;;;;;;;5097375;28;19939;-30
2022/05/30 00:06:43;;;;;;;;;;;;;;;;;;5097322;28;20379;-32
2022/05/30 00:09:13;;;;;;;;;;;;;;;;;;5097713;28;20007;-31
2022/05/30 00:11:39;;;;;;;;;;;;;;;;;;5097824;28;19908;-30
2022/05/30 00:14:05;;;;;;;;;;;;;;;;;;5097061;28;19916;-31
2022/05/30 00:16:31;;;;;;;;;;;;;;;;;;5097375;28;19908;-30
2022/05/30 00:18:57;;;;;;;;;;;;;;;;;;5097088;28;19912;-29
2022/05/30 00:21:23;;;;;;;;;;;;;;;;;;5097000;28;19912;-30
2022/05/30 00:23:53;;;;;;;;;;;;;;;;;;5096905;28;19918;-31
2022/05/30 00:26:19;;;;;;;;;;;;;;;;;;5096928;28;19982;-33
2022/05/30 00:28:45;;;;;;;;;;;;;;;;;;5096772;28;19934;-29
2022/05/30 00:31:11;;;;;;;;;;;;;;;;;;5096842;28;19908;-29
2022/05/30 00:33:37;;;;;;;;;;;;;;;;;;5096785;28;19912;-30
2022/05/30 00:36:03;;;;;;;;;;;;;;;;;;5097277;28;19977;-31
2022/05/30 00:38:29;;;;;;;;;;;;;;;;;;5096670;28;19908;-30
2022/05/30 00:40:56;;;;;;;;;;;;;;;;;;5096938;28;20400;-30
2022/05/30 00:43:22;;;;;;;;;;;;;;;;;;5096824;28;20270;-32
2022/05/30 00:45:48;;;;;;;;;;;;;;;;;;5096477;28;20433;-31
2022/05/30 00:48:14;;;;;;;;;;;;;;;;;;5096678;28;19951;-32
2022/05/30 00:50:40;;;;;;;;;;;;;;;;;;5096424;28;19923;-30
2022/05/30 00:53:06;;;;;;;;;;;;;;;;;;5096619;28;19919;-31
2022/05/30 00:55:32;;;;;;;;;;;;;;;;;;5096332;28;19996;-30
2022/05/30 00:57:58;;;;;;;;;;;;;;;;;;5096868;28;19908;-30
2022/05/30 01:00:25;;;;;;;;;;;;;;;;;;5096165;28;19912;-32
2022/05/30 01:08:20;;;;;;;;;;;;;;;;;;5096202;28;19977;-32
2022/05/30 01:10:46;;;;;;;;;;;;;;;;;;5096069;28;20305;-29
2022/05/30 01:13:13;;;;;;;;;;;;;;;;;;5095977;28;19961;-31
2022/05/30 01:15:39;;;;;;;;;;;;;;;;;;5096616;28;19931;-29
2022/05/30 01:18:05;;;;;;;;;;;;;;;;;;5095871;28;19913;-30
2022/05/30 01:20:31;;;;;;;;;;;;;;;;;;5097001;28;19912;-30
2022/05/30 01:22:57;;;;;;;;;;;;;;;;;;5095857;28;20323;-29
2022/05/30 01:25:23;;;;;;;;;;;;;;;;;;5096414;28;19916;-30
2022/05/30 01:27:49;;;;;;;;;;;;;;;;;;5095723;28;20371;-29
2022/05/30 01:30:15;;;;;;;;;;;;;;;;;;5095799;28;19954;-34
2022/05/30 01:32:41;;;;;;;;;;;;;;;;;;5095629;28;20314;-31
2022/05/30 01:35:07;;;;;;;;;;;;;;;;;;5095975;28;19912;-31
2022/05/30 01:37:33;;;;;;;;;;;;;;;;;;5095920;28;19923;-34
2022/05/30 01:39:59;;;;;;;;;;;;;;;;;;5096142;28;19938;-30
2022/05/30 01:42:25;;;;;;;;;;;;;;;;;;5095506;28;19908;-30
2022/05/30 01:44:51;;;;;;;;;;;;;;;;;;5095517;28;19912;-32
2022/05/30 01:47:17;;;;;;;;;;;;;;;;;;5095213;28;19977;-31
2022/05/30 01:49:43;;;;;;;;;;;;;;;;;;5095706;28;20262;-30
2022/05/30 01:52:10;;;;;;;;;;;;;;;;;;5095654;28;19908;-30
2022/05/30 01:54:36;;;;;;;;;;;;;;;;;;5095371;28;19965;-30
2022/05/30 01:57:02;;;;;;;;;;;;;;;;;;5095384;28;19912;-32
2022/05/30 01:59:28;;;;;;;;;;;;;;;;;;5095248;28;19912;-30
2022/05/30 02:01:54;;;;;;;;;;;;;;;;;;5095221;28;19923;-31
2022/05/30 02:04:20;;;;;;;;;;;;;;;;;;5095237;28;19931;-30
2022/05/30 02:06:46;;;;;;;;;;;;;;;;;;5095250;28;19915;-29
2022/05/30 02:09:12;;;;;;;;;;;;;;;;;;5095665;28;19931;-31
2022/05/30 02:11:38;;;;;;;;;;;;;;;;;;5094659;28;19908;-31
2022/05/30 02:14:04;;;;;;;;;;;;;;;;;;5095085;28;19920;-31
2022/05/30 02:19:14;;;;;;;;;;;;;;;;;;5095160;28;19923;-32
2022/05/30 02:21:40;;;;;;;;;;;;;;;;;;5095395;28;19908;-33
2022/05/30 02:24:06;;;;;;;;;;;;;;;;;;5095299;28;19911;-31
2022/05/30 02:26:32;;;;;;;;;;;;;;;;;;5095046;28;19918;-31
2022/05/30 02:28:58;;;;;;;;;;;;;;;;;;5095494;28;20028;-30
2022/05/30 02:31:25;;;;;;;;;;;;;;;;;;5094101;28;19951;-29
2022/05/30 02:36:41;;;;;;;;;;;;;;;;;;5095281;28;19971;-32
2022/05/30 02:39:07;;;;;;;;;;;;;;;;;;5095235;28;19918;-30
2022/05/30 02:41:33;;;;;;;;;;;;;;;;;;5094904;28;19923;-30
2022/05/30 02:43:59;;;;;;;;;;;;;;;;;;5095604;28;20323;-30
2022/05/30 02:46:25;;;;;;;;;;;;;;;;;;5094680;28;19995;-30
2022/05/30 02:48:51;;;;;;;;;;;;;;;;;;5095057;28;19927;-30
2022/05/30 02:51:17;;;;;;;;;;;;;;;;;;5095606;28;19912;-30
2022/05/30 02:53:43;;;;;;;;;;;;;;;;;;5095285;28;19919;-32
2022/05/30 02:56:09;;;;;;;;;;;;;;;;;;5095052;28;19995;-34
2022/05/30 02:58:35;;;;;;;;;;;;;;;;;;5094723;28;20338;-30
2022/05/30 03:01:01;;;;;;;;;;;;;;;;;;5095256;28;19962;-30
2022/05/30 03:03:27;;;;;;;;;;;;;;;;;;5094609;28;19908;-31
2022/05/30 03:05:54;;;;;;;;;;;;;;;;;;5094667;28;19923;-31
2022/05/30 03:08:20;;;;;;;;;;;;;;;;;;5094671;28;19955;-29
2022/05/30 03:10:46;;;;;;;;;;;;;;;;;;5094574;28;19923;-33
2022/05/30 03:13:12;;;;;;;;;;;;;;;;;;5094581;28;19916;-29
2022/05/30 03:15:38;;;;;;;;;;;;;;;;;;5095154;28;19962;-33
2022/05/30 03:18:04;;;;;;;;;;;;;;;;;;5095188;28;19909;-30
2022/05/30 03:20:30;;;;;;;;;;;;;;;;;;5094541;28;20240;-30
2022/05/30 03:22:56;;;;;;;;;;;;;;;;;;5095504;28;19908;-29
2022/05/30 03:25:22;;;;;;;;;;;;;;;;;;5098160;28;19912;-29
2022/05/30 03:27:48;;;;;;;;;;;;;;;;;;5098080;28;19952;-32
2022/05/30 03:30:14;;;;;;;;;;;;;;;;;;5098316;28;19923;-30
2022/05/30 03:32:41;;;;;;;;;;;;;;;;;;5097981;28;19908;-31
2022/05/30 03:35:07;;;;;;;;;;;;;;;;;;5097964;28;19942;-30
2022/05/30 03:37:33;;;;;;;;;;;;;;;;;;5098518;28;20016;-34
2022/05/30 03:39:59;;;;;;;;;;;;;;;;;;5097807;28;19952;-31
2022/05/30 03:42:25;;;;;;;;;;;;;;;;;;5096770;28;19957;-29
2022/05/30 03:44:51;;;;;;;;;;;;;;;;;;5098257;28;19912;-29
2022/05/30 03:47:18;;;;;;;;;;;;;;;;;;5097408;28;19919;-34
2022/05/30 03:49:44;;;;;;;;;;;;;;;;;;5097894;28;19912;-30
2022/05/30 03:52:10;;;;;;;;;;;;;;;;;;5097537;28;20339;-30
2022/05/30 03:54:36;;;;;;;;;;;;;;;;;;5097759;28;20238;-31
2022/05/30 03:57:03;;;;;;;;;;;;;;;;;;5097956;28;19999;-31
2022/05/30 03:59:29;;;;;;;;;;;;;;;;;;5097387;28;19908;-33
2022/05/30 04:01:55;;;;;;;;;;;;;;;;;;5097192;28;19957;-31
2022/05/30 04:04:21;;;;;;;;;;;;;;;;;;5097833;28;19909;-30
2022/05/30 04:06:47;;;;;;;;;;;;;;;;;;5097178;28;19922;-30
2022/05/30 04:09:12;;;;;;;;;;;;;;;;;;5096937;28;19922;-30
2022/05/30 04:11:38;;;;;;;;;;;;;;;;;;5097691;28;20251;-30
2022/05/30 04:14:04;;;;;;;;;;;;;;;;;;5097017;28;19912;-31
2022/05/30 04:16:30;;;;;;;;;;;;;;;;;;5097126;28;19970;-31
2022/05/30 04:18:56;;;;;;;;;;;;;;;;;;5097129;28;19913;-33
2022/05/30 04:21:23;;;;;;;;;;;;;;;;;;5097132;28;20353;-34
2022/05/30 04:23:49;;;;;;;;;;;;;;;;;;5096658;28;19922;-32
2022/05/30 04:26:15;;;;;;;;;;;;;;;;;;5096681;28;20007;-34
2022/05/30 04:28:41;;;;;;;;;;;;;;;;;;5096628;28;19969;-31
2022/05/30 04:31:07;;;;;;;;;;;;;;;;;;5096718;28;19908;-32
2022/05/30 04:33:33;;;;;;;;;;;;;;;;;;5096137;28;20015;-31
2022/05/30 04:35:59;;;;;;;;;;;;;;;;;;5096828;28;19909;-33
2022/05/30 04:38:25;;;;;;;;;;;;;;;;;;5096749;28;20045;-31
2022/05/30 04:40:51;;;;;;;;;;;;;;;;;;5096780;28;19969;-31
2022/05/30 04:43:17;;;;;;;;;;;;;;;;;;5096473;28;19912;-34
2022/05/30 04:45:42;;;;;;;;;;;;;;;;;;5096194;28;19916;-33
2022/05/30 04:48:08;;;;;;;;;;;;;;;;;;5096148;28;19920;-36
2022/05/30 04:50:34;;;;;;;;;;;;;;;;;;5096246;28;19908;-31
2022/05/30 04:53:00;;;;;;;;;;;;;;;;;;5096266;28;20259;-31
2022/05/30 04:55:26;;;;;;;;;;;;;;;;;;5096294;28;19915;-32
2022/05/30 04:57:52;;;;;;;;;;;;;;;;;;5096291;28;20361;-32
2022/05/30 05:00:19;;;;;;;;;;;;;;;;;;5096168;28;19912;-34
2022/05/30 05:02:45;;;;;;;;;;;;;;;;;;5095980;28;19913;-31
2022/05/30 05:05:11;;;;;;;;;;;;;;;;;;5096081;28;19994;-30
2022/05/30 05:07:37;;;;;;;;;;;;;;;;;;5095998;28;19960;-31
2022/05/30 05:10:03;;;;;;;;;;;;;;;;;;5096061;28;20363;-32
2022/05/30 05:12:29;;;;;;;;;;;;;;;;;;5095920;28;20002;-32
2022/05/30 05:14:55;;;;;;;;;;;;;;;;;;5095912;28;20350;-30
2022/05/30 05:17:21;;;;;;;;;;;;;;;;;;5095857;28;19914;-31
2022/05/30 05:19:47;;;;;;;;;;;;;;;;;;5097208;28;19942;-31
2022/05/30 05:22:13;;;;;;;;;;;;;;;;;;5095806;28;19908;-31
2022/05/30 05:24:39;;;;;;;;;;;;;;;;;;5096091;28;19935;-32
2022/05/30 05:27:05;;;;;;;;;;;;;;;;;;5095648;28;19912;-32
2022/05/30 05:29:31;;;;;;;;;;;;;;;;;;5095582;28;19919;-34
2022/05/30 05:31:59;;;;;;;;;;;;;;;;;;5095852;28;19991;-32
2022/05/30 05:34:25;;;;;;;;;;;;;;;;;;5095628;28;19912;-33
2022/05/30 05:36:51;;;;;;;;;;;;;;;;;;5095856;28;20228;-31
2022/05/30 05:39:17;;;;;;;;;;;;;;;;;;5095435;28;19969;-30
2022/05/30 05:41:43;;;;;;;;;;;;;;;;;;5095234;28;19969;-31
2022/05/30 05:44:09;;;;;;;;;;;;;;;;;;5095278;28;19912;-31
2022/05/30 05:46:35;;;;;;;;;;;;;;;;;;5094351;28;19916;-31
2022/05/30 05:49:01;;;;;;;;;;;;;;;;;;5095541;28;19931;-31
2022/05/30 05:51:27;;;;;;;;;;;;;;;;;;5095302;28;19974;-32
2022/05/30 05:53:53;;;;;;;;;;;;;;;;;;5095250;28;19912;-32
2022/05/30 05:56:19;;;;;;;;;;;;;;;;;;5095495;28;19977;-30
2022/05/30 05:58:45;;;;;;;;;;;;;;;;;;5094787;28;19912;-34
2022/05/30 06:03:54;;;;;;;;;;;;;;;;;;5056569;23;19926;-28
2022/05/30 06:06:20;;;;;;;;;;;;;;;;;;4975900;28;19914;-27
2022/05/30 06:08:46;;;;;;;;;;;;;;;;;;4975806;28;19977;-28
2022/05/30 06:11:12;;;;;;;;;;;;;;;;;;4975988;28;19992;-28
2022/05/30 06:13:38;;;;;;;;;;;;;;;;;;4974972;28;19914;-28
2022/05/30 06:16:04;;;;;;;;;;;;;;;;;;4975296;28;19925;-28
2022/05/30 06:18:30;;;;;;;;;;;;;;;;;;4976219;28;19929;-28
2022/05/30 06:20:56;;;;;;;;;;;;;;;;;;4975932;28;19914;-28
2022/05/30 06:23:22;;;;;;;;;;;;;;;;;;4975921;28;20253;-28
2022/05/30 06:25:48;;;;;;;;;;;;;;;;;;4976255;28;19910;-28
2022/05/30 06:28:14;;;;;;;;;;;;;;;;;;4974889;28;19945;-28
2022/05/30 06:30:40;;;;;;;;;;;;;;;;;;4975963;28;19914;-28
2022/05/30 06:33:06;;;;;;;;;;;;;;;;;;4975627;28;19914;-28
2022/05/30 06:35:32;;;;;;;;;;;;;;;;;;4975736;28;20355;-28
2022/05/30 06:37:58;;;;;;;;;;;;;;;;;;4975560;28;20345;-27
2022/05/30 06:40:24;;;;;;;;;;;;;;;;;;4975806;28;19950;-28
2022/05/30 06:42:50;;;;;;;;;;;;;;;;;;4975681;28;20261;-28
2022/05/30 06:45:16;;;;;;;;;;;;;;;;;;4975663;28;19922;-29
2022/05/30 06:47:42;;;;;;;;;;;;;;;;;;4974538;28;20353;-29
2022/05/30 06:50:08;;;;;;;;;;;;;;;;;;4975665;28;19968;-28
2022/05/30 06:52:34;;;;;;;;;;;;;;;;;;4975502;28;19976;-28
2022/05/30 06:55:00;;;;;;;;;;;;;;;;;;4975782;28;20327;-28
2022/05/30 07:00:11;;;;;;;;;;;;;;;;;;4979801;28;19948;-28
2022/05/30 07:02:37;;;;;;;;;;;;;;;;;;4978729;28;19926;-28
2022/05/30 07:05:03;;;;;;;;;;;;;;;;;;4979117;28;19918;-28
2022/05/30 07:07:29;;;;;;;;;;;;;;;;;;4978009;28;19921;-28
2022/05/30 07:09:55;;;;;;;;;;;;;;;;;;4979016;28;20226;-28
2022/05/30 07:12:21;;;;;;;;;;;;;;;;;;4978747;28;19950;-28
2022/05/30 07:14:47;;;;;;;;;;;;;;;;;;4978861;28;19914;-28
2022/05/30 07:17:13;;;;;;;;;;;;;;;;;;4978716;28;19918;-34
2022/05/30 07:19:39;;;;;;;;;;;;;;;;;;4978648;28;19914;-28
2022/05/30 07:22:06;;;;;;;;;;;;;;;;;;4978471;28;19910;-28
2022/05/30 07:24:32;;;;;;;;;;;;;;;;;;4978596;28;20009;-28
2022/05/30 07:26:58;;;;;;;;;;;;;;;;;;4978735;28;20298;-31
2022/05/30 07:29:26;;;;;;;;;;;;;;;;;;4978607;28;20273;-28
2022/05/30 07:31:52;;;;;;;;;;;;;;;;;;4978825;28;19910;-28
2022/05/30 07:34:18;;;;;;;;;;;;;;;;;;4978802;28;19920;-28
2022/05/30 07:36:44;;;;;;;;;;;;;;;;;;4978472;28;19914;-28
2022/05/30 07:39:10;;;;;;;;;;;;;;;;;;4978539;28;19968;-27
2022/05/30 07:41:36;;;;;;;;;;;;;;;;;;4977430;28;20018;-28
2022/05/30 07:44:02;;;;;;;;;;;;;;;;;;4978450;28;19945;-28
2022/05/30 07:46:28;;;;;;;;;;;;;;;;;;4978216;28;20004;-28
2022/05/30 07:48:54;;;;;;;;;;;;;;;;;;4977195;28;19921;-28
2022/05/30 07:51:20;;;;;;;;;;;;;;;;;;4977282;28;19917;-28
2022/05/30 07:53:46;;;;;;;;;;;;;;;;;;4978172;28;20236;-28
2022/05/30 07:56:12;;;;;;;;;;;;;;;;;;4978431;28;19944;-28
2022/05/30 07:58:38;;;;;;;;;;;;;;;;;;4978363;28;19925;-28
2022/05/30 08:01:04;;;;;;;;;;;;;;;;;;4978090;28;20412;-27
2022/05/30 08:03:30;;;;;;;;;;;;;;;;;;4977679;28;19934;-28
2022/05/30 08:05:56;;;;;;;;;;;;;;;;;;4977907;28;20383;-28
2022/05/30 08:08:22;;;;;;;;;;;;;;;;;;4977940;28;19914;-28
2022/05/30 08:10:48;;;;;;;;;;;;;;;;;;4978016;28;19914;-28
2022/05/30 08:13:15;;;;;;;;;;;;;;;;;;4977916;28;19921;-28
2022/05/30 08:15:41;;;;;;;;;;;;;;;;;;4977692;28;19978;-29
2022/05/30 08:18:07;;;;;;;;;;;;;;;;;;4977727;28;19926;-28
2022/05/30 08:20:33;;;;;;;;;;;;;;;;;;4976687;28;19914;-28
2022/05/30 08:22:58;;;;;;;;;;;;;;;;;;4977785;28;19910;-28
2022/05/30 08:25:24;;;;;;;;;;;;;;;;;;4977434;28;19914;-28
2022/05/30 08:27:50;;;;;;;;;;;;;;;;;;4977509;28;19918;-28
2022/05/30 08:30:18;;;;;;;;;;;;;;;;;;4976495;28;19992;-28
2022/05/30 08:32:44;;;;;;;;;;;;;;;;;;4977512;28;19959;-28
2022/05/30 08:35:10;;;;;;;;;;;;;;;;;;4977575;28;20009;-28
2022/05/30 08:37:37;;;;;;;;;;;;;;;;;;4977211;28;20376;-28
2022/05/30 08:42:48;;;;;;;;;;;;;;;;;;4977756;28;19947;-28
2022/05/30 08:45:14;;;;;;;;;;;;;;;;;;4977528;28;19940;-28
2022/05/30 08:47:40;;;;;;;;;;;;;;;;;;4976206;28;20310;-28
2022/05/30 08:50:06;;;;;;;;;;;;;;;;;;4976185;28;19914;-28
2022/05/30 08:52:32;;;;;;;;;;;;;;;;;;4976101;28;19910;-28
2022/05/30 08:54:58;;;;;;;;;;;;;;;;;;4977182;28;20357;-28
2022/05/30 08:57:24;;;;;;;;;;;;;;;;;;4977061;28;19980;-28
2022/05/30 08:59:54;;;;;;;;;;;;;;;;;;4976087;28;20328;-28
2022/05/30 09:02:20;;;;;;;;;;;;;;;;;;4976992;28;19992;-28
2022/05/30 09:04:47;;;;;;;;;;;;;;;;;;4977394;28;19914;-28
2022/05/30 09:07:13;;;;;;;;;;;;;;;;;;4976887;28;19926;-28
2022/05/30 09:09:39;;;;;;;;;;;;;;;;;;4976867;28;20001;-28
2022/05/30 09:12:05;;;;;;;;;;;;;;;;;;4977160;28;19976;-28
2022/05/30 09:14:32;;;;;;;;;;;;;;;;;;4976631;28;19924;-28
2022/05/30 09:16:58;;;;;;;;;;;;;;;;;;4976743;28;19957;-28
2022/05/30 09:19:24;;;;;;;;;;;;;;;;;;4976709;28;19969;-28
2022/05/30 09:21:50;;;;;;;;;;;;;;;;;;4976502;28;20383;-28
2022/05/30 09:24:16;;;;;;;;;;;;;;;;;;4976472;28;20069;-34
2022/05/30 09:26:42;;;;;;;;;;;;;;;;;;4976534;28;19914;-28
2022/05/30 09:29:08;;;;;;;;;;;;;;;;;;4975257;28;19914;-28
2022/05/30 09:31:35;;;;;;;;;;;;;;;;;;4976459;28;19914;-28
2022/05/30 09:34:01;;;;;;;;;;;;;;;;;;4976336;28;19981;-28
2022/05/30 09:36:27;;;;;;;;;;;;;;;;;;4975314;28;20385;-28
2022/05/30 09:38:53;;;;;;;;;;;;;;;;;;4976467;28;20032;-28
2022/05/30 09:41:19;;;;;;;;;;;;;;;;;;4976459;28;20073;-28
2022/05/30 09:43:45;;;;;;;;;;;;;;;;;;4976219;28;19917;-28
2022/05/30 09:46:11;;;;;;;;;;;;;;;;;;4975889;28;19914;-28
2022/05/30 09:48:39;;;;;;;;;;;;;;;;;;4975402;28;20435;-28
2022/05/30 09:51:06;;;;;;;;;;;;;;;;;;4976108;28;19915;-28
2022/05/30 09:53:31;;;;;;;;;;;;;;;;;;4976088;28;20363;-29
2022/05/30 09:55:58;;;;;;;;;;;;;;;;;;4976414;28;19921;-28
2022/05/30 09:58:24;;;;;;;;;;;;;;;;;;4976111;28;19914;-29
2022/05/30 10:00:50;;;;;;;;;;;;;;;;;;4975953;28;19925;-28
2022/05/30 10:03:16;;;;;;;;;;;;;;;;;;4975932;28;19984;-28
2022/05/30 10:05:42;;;;;;;;;;;;;;;;;;4976018;28;20009;-28
2022/05/30 10:08:09;;;;;;;;;;;;;;;;;;4975923;28;19970;-29
2022/05/30 10:10:34;;;;;;;;;;;;;;;;;;4975963;28;19915;-28
2022/05/30 10:13:01;;;;;;;;;;;;;;;;;;4975855;28;20008;-28
2022/05/30 10:15:27;;;;;;;;;;;;;;;;;;4975969;28;19921;-28
2022/05/30 10:17:53;;;;;;;;;;;;;;;;;;4974736;28;19910;-28
2022/05/30 10:20:19;;;;;;;;;;;;;;;;;;4975978;28;20384;-29
2022/05/30 10:28:14;;;;;;;;;;;;;;;;;;4975809;28;19921;-28
2022/05/30 10:30:40;;;;;;;;;;;;;;;;;;4975866;28;19932;-29
2022/05/30 10:33:06;;;;;;;;;;;;;;;;;;4978368;28;19910;-28
2022/05/30 10:35:33;;;;;;;;;;;;;;;;;;4979611;28;19914;-28
2022/05/30 10:37:59;;;;;;;;;;;;;;;;;;4979754;28;19918;-28
2022/05/30 10:40:27;;;;;;;;;;;;;;;;;;4978624;28;19914;-28
2022/05/30 10:42:53;;;;;;;;;;;;;;;;;;4979780;28;20301;-28
2022/05/30 10:45:19;;;;;;;;;;;;;;;;;;4978682;28;20428;-28
2022/05/30 10:47:48;;;;;;;;;;;;;;;;;;4978285;28;20233;-28
2022/05/30 10:50:14;;;;;;;;;;;;;;;;;;4979368;28;19918;-28
2022/05/30 10:52:40;;;;;;;;;;;;;;;;;;4978179;28;19915;-28
2022/05/30 10:55:06;;;;;;;;;;;;;;;;;;4978473;28;20272;-28
2022/05/30 10:57:32;;;;;;;;;;;;;;;;;;4979526;28;19932;-28
2022/05/30 10:59:58;;;;;;;;;;;;;;;;;;4979339;28;19918;-28
2022/05/30 11:02:26;;;;;;;;;;;;;;;;;;4978018;28;20364;-28
2022/05/30 11:04:52;;;;;;;;;;;;;;;;;;4979594;28;20005;-28
2022/05/30 11:07:18;;;;;;;;;;;;;;;;;;4979400;28;20007;-28
2022/05/30 11:09:44;;;;;;;;;;;;;;;;;;4979223;28;19914;-28
2022/05/30 11:12:10;;;;;;;;;;;;;;;;;;4979147;28;19928;-28
2022/05/30 11:14:36;;;;;;;;;;;;;;;;;;4979492;28;20279;-28
2022/05/30 11:17:02;;;;;;;;;;;;;;;;;;4979109;28;19961;-28
2022/05/30 11:19:28;;;;;;;;;;;;;;;;;;4979223;28;19913;-28
2022/05/30 11:21:55;;;;;;;;;;;;;;;;;;4978655;28;19910;-28
2022/05/30 11:24:21;;;;;;;;;;;;;;;;;;4977711;28;20309;-28
2022/05/30 11:26:47;;;;;;;;;;;;;;;;;;4978875;28;20286;-28
2022/05/30 11:29:13;;;;;;;;;;;;;;;;;;4978463;28;19939;-28
2022/05/30 11:31:39;;;;;;;;;;;;;;;;;;4978642;28;19942;-28
2022/05/30 11:34:05;;;;;;;;;;;;;;;;;;4978500;28;19914;-28
2022/05/30 11:36:31;;;;;;;;;;;;;;;;;;4978389;28;20021;-28
2022/05/30 11:38:57;;;;;;;;;;;;;;;;;;4977486;28;20333;-28
2022/05/30 11:41:23;;;;;;;;;;;;;;;;;;4978743;28;19910;-28
2022/05/30 11:43:50;;;;;;;;;;;;;;;;;;4977185;28;19921;-28
2022/05/30 11:46:15;;;;;;;;;;;;;;;;;;4978165;28;19925;-28
2022/05/30 11:48:43;;;;;;;;;;;;;;;;;;4977267;28;19914;-28
2022/05/30 11:51:09;;;;;;;;;;;;;;;;;;4978282;28;19914;-28
2022/05/30 11:53:35;;;;;;;;;;;;;;;;;;4978148;28;19954;-28
2022/05/30 11:56:02;;;;;;;;;;;;;;;;;;4978371;28;19922;-28
2022/05/30 11:58:28;;;;;;;;;;;;;;;;;;4978713;28;19946;-28
2022/05/30 12:00:54;;;;;;;;;;;;;;;;;;4978021;28;19920;-28
2022/05/30 12:03:24;;;;;;;;;;;;;;;;;;4977866;28;20337;-28
2022/05/30 12:05:50;;;;;;;;;;;;;;;;;;4978147;28;19922;-28
2022/05/30 12:08:16;;;;;;;;;;;;;;;;;;4977896;28;19918;-28
2022/05/30 12:10:43;;;;;;;;;;;;;;;;;;4978017;28;19915;-28
2022/05/30 12:13:09;;;;;;;;;;;;;;;;;;4977485;28;19954;-28
2022/05/30 12:15:35;;;;;;;;;;;;;;;;;;4978152;28;19914;-28
2022/05/30 12:23:48;;;;;;;;;;;;;;;;;;4977823;28;19972;-28
2022/05/30 12:26:14;;;;;;;;;;;;;;;;;;4977696;28;19914;-27
2022/05/30 12:28:40;;;;;;;;;;;;;;;;;;4977515;28;19918;-28
2022/05/30 12:31:06;;;;;;;;;;;;;;;;;;4977970;28;19914;-28
2022/05/30 12:33:32;;;;;;;;;;;;;;;;;;4977960;28;19917;-28
2022/05/30 12:35:58;;;;;;;;;;;;;;;;;;4977899;28;19964;-28
2022/05/30 12:38:24;;;;;;;;;;;;;;;;;;4977490;28;19914;-28
2022/05/30 12:40:50;;;;;;;;;;;;;;;;;;4977353;28;19957;-28
2022/05/30 12:43:19;;;;;;;;;;;;;;;;;;4977280;28;20382;-29
2022/05/30 12:45:46;;;;;;;;;;;;;;;;;;4977356;28;20313;-29
2022/05/30 12:48:12;;;;;;;;;;;;;;;;;;4977353;28;19918;-28
2022/05/30 12:50:38;;;;;;;;;;;;;;;;;;4976234;28;20346;-29
2022/05/30 12:53:05;;;;;;;;;;;;;;;;;;4977310;28;19917;-28
2022/05/30 12:55:32;;;;;;;;;;;;;;;;;;4975795;28;20363;-29
2022/05/30 12:57:58;;;;;;;;;;;;;;;;;;4977210;28;20298;-28
2022/05/30 13:00:24;;;;;;;;;;;;;;;;;;4976164;28;19914;-28
2022/05/30 13:02:50;;;;;;;;;;;;;;;;;;4976782;28;20222;-28
2022/05/30 13:05:16;;;;;;;;;;;;;;;;;;4977278;28;20308;-29
2022/05/30 13:07:43;;;;;;;;;;;;;;;;;;4975975;28;20021;-28
2022/05/30 13:10:09;;;;;;;;;;;;;;;;;;4977102;28;19914;-28
2022/05/30 13:12:51;;;;;;;;;;;;;;;;;;4976777;28;19910;-29
2022/05/30 13:15:17;;;;;;;;;;;;;;;;;;4977216;28;19925;-28
2022/05/30 13:17:43;;;;;;;;;;;;;;;;;;4977014;28;19910;-28
2022/05/30 13:20:09;;;;;;;;;;;;;;;;;;4975822;28;19915;-28
2022/05/30 13:22:35;;;;;;;;;;;;;;;;;;4975766;28;20428;-28
2022/05/30 13:25:01;;;;;;;;;;;;;;;;;;4976962;28;19996;-28
2022/05/30 13:27:27;;;;;;;;;;;;;;;;;;4976839;28;19950;-28
2022/05/30 13:29:53;;;;;;;;;;;;;;;;;;4976959;28;19910;-29
2022/05/30 13:32:19;;;;;;;;;;;;;;;;;;4976599;28;19946;-28
2022/05/30 13:34:46;;;;;;;;;;;;;;;;;;4975764;28;19949;-28
2022/05/30 13:37:12;;;;;;;;;;;;;;;;;;4975598;28;20012;-28
2022/05/30 13:39:38;;;;;;;;;;;;;;;;;;4975515;28;19925;-28
2022/05/30 13:42:04;;;;;;;;;;;;;;;;;;4976481;28;19914;-28
2022/05/30 13:44:30;;;;;;;;;;;;;;;;;;4976770;28;19922;-28
2022/05/30 13:46:56;;;;;;;;;;;;;;;;;;4976720;28;20347;-28
2022/05/30 13:49:22;;;;;;;;;;;;;;;;;;4975356;28;20017;-28
2022/05/30 13:51:48;;;;;;;;;;;;;;;;;;4976364;28;19914;-30
2022/05/30 13:54:14;;;;;;;;;;;;;;;;;;4976199;28;19940;-28
2022/05/30 13:56:40;;;;;;;;;;;;;;;;;;4976190;28;20340;-28
2022/05/30 13:59:06;;;;;;;;;;;;;;;;;;4976345;28;20255;-28
2022/05/30 14:01:32;;;;;;;;;;;;;;;;;;4975161;28;19914;-28
2022/05/30 14:04:00;;;;;;;;;;;;;;;;;;4975932;28;19965;-28
2022/05/30 14:06:26;;;;;;;;;;;;;;;;;;4974582;28;20013;-28
2022/05/30 14:08:52;;;;;;;;;;;;;;;;;;4976223;28;20012;-28
2022/05/30 14:11:18;;;;;;;;;;;;;;;;;;4975058;28;19914;-29
2022/05/30 14:13:44;;;;;;;;;;;;;;;;;;4974958;28;19914;-28
2022/05/30 14:16:10;;;;;;;;;;;;;;;;;;4975921;28;19929;-28
2022/05/30 14:18:36;;;;;;;;;;;;;;;;;;4974994;28;19910;-28
2022/05/30 14:21:02;;;;;;;;;;;;;;;;;;4975045;28;19957;-28
2022/05/30 14:23:28;;;;;;;;;;;;;;;;;;4975867;28;19914;-28
2022/05/30 14:25:54;;;;;;;;;;;;;;;;;;4976095;28;19914;-29
2022/05/30 14:28:20;;;;;;;;;;;;;;;;;;4974847;28;19922;-28
2022/05/30 14:30:46;;;;;;;;;;;;;;;;;;4975845;28;19936;-28
2022/05/30 14:33:12;;;;;;;;;;;;;;;;;;4974779;28;19914;-28
2022/05/30 14:35:39;;;;;;;;;;;;;;;;;;4975749;28;20242;-28
2022/05/30 14:38:05;;;;;;;;;;;;;;;;;;4974874;28;19972;-28
2022/05/30 14:40:31;;;;;;;;;;;;;;;;;;4975700;28;19918;-28
2022/05/30 14:42:57;;;;;;;;;;;;;;;;;;4975768;28;20005;-28
2022/05/30 14:45:22;;;;;;;;;;;;;;;;;;4974876;28;19914;-29
2022/05/30 14:47:49;;;;;;;;;;;;;;;;;;4976000;28;19922;-29
2022/05/30 14:50:15;;;;;;;;;;;;;;;;;;4974781;28;19914;-28
2022/05/30 14:52:46;;;;;;;;;;;;;;;;;;4974642;28;19977;-29
2022/05/30 14:55:12;;;;;;;;;;;;;;;;;;4975938;28;19914;-28
2022/05/30 14:57:38;;;;;;;;;;;;;;;;;;4974599;28;19910;-28
2022/05/30 15:00:04;;;;;;;;;;;;;;;;;;4974648;28;19945;-28
2022/05/30 15:05:14;;;;;;;;;;;;;;;;;;4975823;28;19968;-28
2022/05/30 15:07:41;;;;;;;;;;;;;;;;;;4975659;28;20000;-28
2022/05/30 15:10:07;;;;;;;;;;;;;;;;;;4975988;28;20397;-28
2022/05/30 15:12:33;;;;;;;;;;;;;;;;;;4975608;28;20024;-28
2022/05/30 15:14:59;;;;;;;;;;;;;;;;;;4975684;28;20256;-28
2022/05/30 15:17:25;;;;;;;;;;;;;;;;;;4975655;28;19914;-28
2022/05/30 15:19:53;;;;;;;;;;;;;;;;;;4979210;28;19911;-29
2022/05/30 15:22:19;;;;;;;;;;;;;;;;;;4979069;28;19925;-29
2022/05/30 15:24:45;;;;;;;;;;;;;;;;;;4979509;28;20005;-29
2022/05/30 15:27:13;;;;;;;;;;;;;;;;;;4979108;28;20376;-28
2022/05/30 15:29:39;;;;;;;;;;;;;;;;;;4979047;28;19922;-29
2022/05/30 15:32:05;;;;;;;;;;;;;;;;;;4977964;28;19914;-28
2022/05/30 15:34:31;;;;;;;;;;;;;;;;;;4978976;28;19914;-28
2022/05/30 15:37:00;;;;;;;;;;;;;;;;;;4978784;28;19925;-28
2022/05/30 15:39:26;;;;;;;;;;;;;;;;;;4978801;28;19925;-28
2022/05/30 15:41:51;;;;;;;;;;;;;;;;;;4978683;28;19914;-28
2022/05/30 15:44:17;;;;;;;;;;;;;;;;;;4978979;28;20330;-28
2022/05/30 15:46:44;;;;;;;;;;;;;;;;;;4978649;28;19910;-28
2022/05/30 15:49:10;;;;;;;;;;;;;;;;;;4978429;28;20396;-29
2022/05/30 15:51:36;;;;;;;;;;;;;;;;;;4978799;28;19933;-28
2022/05/30 15:59:31;;;;;;;;;;;;;;;;;;4979068;28;19933;-28
2022/05/30 16:01:57;;;;;;;;;;;;;;;;;;4978489;28;19914;-28
2022/05/30 16:04:23;;;;;;;;;;;;;;;;;;4978442;28;19929;-29
2022/05/30 16:06:52;;;;;;;;;;;;;;;;;;4978335;28;20012;-28
2022/05/30 16:09:19;;;;;;;;;;;;;;;;;;4978526;28;19933;-28
2022/05/30 16:11:47;;;;;;;;;;;;;;;;;;4978239;28;19910;-28
2022/05/30 16:14:12;;;;;;;;;;;;;;;;;;4978533;28;19925;-28
2022/05/30 16:16:39;;;;;;;;;;;;;;;;;;4978211;28;20349;-28
2022/05/30 16:19:06;;;;;;;;;;;;;;;;;;4978282;28;19946;-28
2022/05/30 16:21:33;;;;;;;;;;;;;;;;;;4978422;28;20249;-27
2022/05/30 16:23:59;;;;;;;;;;;;;;;;;;4977375;28;19954;-28
2022/05/30 16:26:25;;;;;;;;;;;;;;;;;;4978123;28;20350;-28
2022/05/30 16:28:51;;;;;;;;;;;;;;;;;;4976861;28;19922;-28
2022/05/30 16:31:17;;;;;;;;;;;;;;;;;;4977146;28;20293;-29
2022/05/30 16:33:43;;;;;;;;;;;;;;;;;;4977775;28;19925;-28
2022/05/30 16:36:08;;;;;;;;;;;;;;;;;;4976850;28;19914;-29
2022/05/30 16:38:34;;;;;;;;;;;;;;;;;;4978134;28;20023;-29
2022/05/30 16:41:00;;;;;;;;;;;;;;;;;;4977740;28;19918;-28
2022/05/30 16:43:26;;;;;;;;;;;;;;;;;;4976657;28;20369;-28
2022/05/30 16:45:53;;;;;;;;;;;;;;;;;;4977642;28;19914;-28
2022/05/30 16:48:19;;;;;;;;;;;;;;;;;;4978001;28;19941;-27
2022/05/30 16:50:45;;;;;;;;;;;;;;;;;;4977830;28;20474;-27
2022/05/30 16:53:10;;;;;;;;;;;;;;;;;;4977330;28;19914;-28
2022/05/30 16:55:36;;;;;;;;;;;;;;;;;;4977245;28;19914;-28
2022/05/30 16:58:02;;;;;;;;;;;;;;;;;;4976272;28;19917;-28
2022/05/30 17:00:29;;;;;;;;;;;;;;;;;;4977214;28;19921;-28
2022/05/30 17:02:55;;;;;;;;;;;;;;;;;;4977083;28;19936;-27
2022/05/30 17:05:21;;;;;;;;;;;;;;;;;;4977482;28;19918;-28
2022/05/30 17:07:50;;;;;;;;;;;;;;;;;;4976143;28;20417;-28
2022/05/30 17:10:16;;;;;;;;;;;;;;;;;;4977221;28;19933;-28
2022/05/30 17:12:42;;;;;;;;;;;;;;;;;;4976951;28;19918;-27
2022/05/30 17:15:08;;;;;;;;;;;;;;;;;;4977306;28;19922;-28
2022/05/30 17:17:34;;;;;;;;;;;;;;;;;;4976038;28;19911;-28